Time;durP1;ratioP1;P1;durP2;ratioP2;P2;SDS_P1;SDS_P2;PMS_P1;PMS_P2;Temp;Humidity;BMP_temperature;BMP_pressure;BME280_temperature;BME280_humidity;BME280_pressure;Samples;Min_cycle;Max_cycle;Signal;HPM_P1;HPM_P2
2023/12/01 05:14:50;;;;;;;9.40;7.35;;;;;;;1.59;78.70;97011.94;3296892;26;103607;-69
2023/12/01 05:17:29;;;;;;;10.57;7.72;;;;;;;1.62;78.75;97019.47;4992571;28;103027;-68
2023/12/01 05:20:15;;;;;;;10.27;8.25;;;;;;;1.57;78.08;97013.06;4977974;28;102797;-69
2023/12/01 05:22:53;;;;;;;10.23;8.13;;;;;;;1.58;78.63;97001.66;4999451;28;102846;-69
2023/12/01 05:25:35;;;;;;;14.25;10.60;;;;;;;1.56;78.26;97011.44;4975750;28;102936;-69
2023/12/01 05:28:14;;;;;;;;;;;;;;;1.33;78.14;97007.53;4977698;28;103094;-69
2023/12/01 05:30:55;;;;;;;12.18;9.05;;;;;;;1.42;78.31;97005.78;4976845;28;102681;-69
2023/12/01 05:33:38;;;;;;;14.57;10.77;;;;;;;1.39;78.64;97013.94;4974417;28;102775;-69
2023/12/01 05:36:19;;;;;;;15.85;11.85;;;;;;;1.38;78.67;97030.56;4974751;28;105026;-68
2023/12/01 05:38:52;;;;;;;13.98;10.00;;;;;;;1.44;79.46;97029.13;4977590;28;103077;-69
2023/12/01 05:41:22;;;;;;;16.13;12.32;;;;;;;1.46;78.53;97028.00;4980233;28;102592;-69
2023/12/01 05:43:55;;;;;;;15.88;12.23;;;;;;;1.42;78.58;97037.09;4971055;28;103824;-69
2023/12/01 05:46:36;;;;;;;13.25;10.15;;;;;;;1.36;78.89;97035.09;4974640;28;102941;-69
2023/12/01 05:49:24;;;;;;;14.48;12.07;;;;;;;1.36;78.47;97031.69;4974439;28;103164;-69
2023/12/01 05:52:12;;;;;;;13.95;9.60;;;;;;;1.34;78.75;97042.28;4975846;28;103288;-69
2023/12/01 05:54:52;;;;;;;17.27;12.82;;;;;;;1.42;79.28;97028.47;4972896;28;102971;-69
2023/12/01 05:57:33;;;;;;;12.20;9.68;;;;;;;1.37;79.41;97031.53;4973754;28;103474;-69
2023/12/01 06:00:20;;;;;;;10.02;8.20;;;;;;;1.41;79.35;97037.25;4976929;28;104977;-69
2023/12/01 06:03:08;;;;;;;10.20;8.27;;;;;;;1.46;79.33;97038.44;4979670;28;102674;-69
2023/12/01 06:05:54;;;;;;;18.23;13.75;;;;;;;1.48;78.66;97046.94;4971022;28;103049;-69
2023/12/01 06:08:43;;;;;;;14.43;11.90;;;;;;;1.45;78.79;97047.22;4979837;28;103031;-69
2023/12/01 06:11:28;;;;;;;20.20;14.65;;;;;;;1.32;78.48;97045.03;4977572;28;103025;-69
2023/12/01 06:14:10;;;;;;;11.45;9.00;;;;;;;1.26;79.40;97044.81;4979174;28;102996;-68
2023/12/01 06:16:54;;;;;;;13.93;9.70;;;;;;;1.28;79.19;97046.28;4974489;28;102807;-68
2023/12/01 06:19:42;;;;;;;13.18;9.65;;;;;;;1.33;79.50;97058.88;4966793;28;102997;-68
2023/12/01 06:22:23;;;;;;;13.88;10.35;;;;;;;1.29;79.21;97052.34;4978085;28;103609;-69
2023/12/01 06:25:05;;;;;;;15.38;10.88;;;;;;;1.34;79.20;97070.97;4961170;28;102709;-68
2023/12/01 06:27:51;;;;;;;14.98;10.15;;;;;;;1.34;79.26;97073.56;4960263;28;102728;-69
2023/12/01 06:30:34;;;;;;;13.05;10.68;;;;;;;1.35;79.40;97076.97;4976909;28;102974;-69
2023/12/01 06:33:20;;;;;;;12.30;9.40;;;;;;;1.34;79.08;97076.19;4961392;28;104100;-69
2023/12/01 06:36:04;;;;;;;13.75;11.18;;;;;;;1.33;78.59;97074.53;4977784;28;102616;-68
2023/12/01 06:38:46;;;;;;;12.45;9.88;;;;;;;1.31;79.04;97071.25;4956211;28;102802;-68
2023/12/01 06:41:28;;;;;;;;;;;;;;;1.24;79.39;97065.81;4983100;28;103058;-68
2023/12/01 06:44:12;;;;;;;9.77;7.85;;;;;;;1.34;79.40;97081.41;4983207;28;103130;-67
2023/12/01 06:47:34;;;;;;;11.73;8.93;;;;;;;1.33;79.56;97087.56;4980355;28;102609;-68
2023/12/01 06:51:18;;;;;;;16.58;9.93;;;;;;;1.27;79.46;97083.78;4984029;28;102657;-68
2023/12/01 06:57:12;;;;;;;11.90;9.65;;;;;;;1.26;79.73;97107.41;4972546;22;104088;-68
2023/12/01 06:59:49;;;;;;;10.73;8.68;;;;;;;1.30;79.77;97111.34;4978885;28;102693;-68
2023/12/01 07:02:33;;;;;;;12.00;8.93;;;;;;;1.33;79.80;97116.28;5000282;28;104367;-68
2023/12/01 07:05:19;;;;;;;13.20;11.35;;;;;;;1.37;79.61;97112.38;4979363;28;104218;-67
2023/12/01 07:08:03;;;;;;;11.02;8.98;;;;;;;1.33;79.37;97121.47;4975635;28;104155;-68
2023/12/01 07:10:45;;;;;;;15.10;11.85;;;;;;;1.33;79.32;97121.47;4999347;28;102662;-68
2023/12/01 07:13:23;;;;;;;10.65;9.05;;;;;;;1.31;79.18;97108.59;5002341;28;103770;-68
2023/12/01 07:16:09;;;;;;;11.73;8.95;;;;;;;1.36;79.23;97109.94;4982525;28;105144;-68
2023/12/01 07:18:55;;;;;;;12.85;9.10;;;;;;;1.39;79.30;97110.47;5000059;28;103010;-68
2023/12/01 07:21:39;;;;;;;11.05;8.10;;;;;;;1.40;79.46;97117.31;4980804;28;102669;-68
2023/12/01 07:24:21;;;;;;;12.57;9.60;;;;;;;1.42;79.15;97109.34;4983636;28;102983;-68
2023/12/01 07:27:05;;;;;;;20.20;14.95;;;;;;;1.30;78.28;97095.72;4998142;28;102997;-68
2023/12/01 07:29:42;;;;;;;12.85;11.05;;;;;;;1.20;79.75;97084.53;5001139;28;102981;-67
2023/12/01 07:32:24;;;;;;;15.50;12.70;;;;;;;1.15;79.04;97098.84;4979262;28;103036;-68
2023/12/01 07:35:13;;;;;;;15.02;11.73;;;;;;;1.23;79.68;97110.28;4995932;28;102655;-68
2023/12/01 07:38:15;;;;;;;14.52;11.13;;;;;;;1.25;79.84;97101.34;4982241;28;103147;-68
2023/12/01 07:41:07;;;;;;;13.15;10.43;;;;;;;1.30;79.69;97106.13;4977573;28;103106;-68
2023/12/01 07:43:52;;;;;;;15.85;10.10;;;;;;;1.28;78.98;97101.06;4999378;28;102643;-68
2023/12/01 07:46:32;;;;;;;16.02;11.93;;;;;;;1.25;79.25;97093.53;4983305;28;104094;-68
2023/12/01 07:49:12;;;;;;;17.67;15.80;;;;;;;1.28;78.78;97102.84;4998006;28;104818;-68
2023/12/01 07:51:47;;;;;;;17.65;13.65;;;;;;;1.23;79.62;97112.91;5007519;28;102953;-67
2023/12/01 07:54:35;;;;;;;14.95;10.82;;;;;;;1.18;79.51;97118.59;4994984;28;102641;-69
2023/12/01 07:57:16;;;;;;;13.27;10.77;;;;;;;1.26;80.26;97123.06;5002057;28;103099;-69
2023/12/01 07:59:51;;;;;;;;;;;;;;;1.19;80.09;97124.59;4984811;28;103181;-69
2023/12/01 08:02:51;;;;;;;9.35;7.72;;;;;;;1.29;80.16;97125.38;5005597;28;103181;-69
2023/12/01 08:06:07;;;;;;;10.98;8.40;;;;;;;1.33;79.51;97131.91;5005326;28;102564;-69
2023/12/01 08:09:05;;;;;;;12.40;9.23;;;;;;;1.38;79.30;97128.88;4982024;22;102866;-69
2023/12/01 08:11:50;;;;;;;9.80;8.10;;;;;;;1.39;79.32;97128.72;4973293;27;102990;-70
2023/12/01 08:14:36;;;;;;;9.30;7.60;;;;;;;1.41;79.21;97124.16;4959995;27;103180;-70
2023/12/01 08:17:23;;;;;;;11.15;9.15;;;;;;;1.39;79.40;97131.34;4944566;27;102608;-69
2023/12/01 08:20:18;;;;;;;12.45;9.60;;;;;;;1.38;79.12;97128.88;5024818;27;103251;-70
2023/12/01 08:22:48;;;;;;;;;;;;;;;1.31;79.87;97144.28;4938987;28;103479;-69
2023/12/01 08:25:21;;;;;;;14.30;11.48;;;;;;;1.41;79.51;97150.25;4941630;27;103230;-69
2023/12/01 08:27:51;;;;;;;10.68;8.73;;;;;;;1.32;79.10;97145.94;4944384;27;102771;-69
2023/12/01 08:30:27;;;;;;;14.60;11.10;;;;;;;1.35;79.59;97145.66;4940494;27;102972;-69
2023/12/01 08:33:02;;;;;;;12.23;9.18;;;;;;;1.40;79.82;97153.00;4923169;28;103053;-70
2023/12/01 08:35:36;;;;;;;14.27;11.50;;;;;;;1.36;79.25;97147.25;4971188;27;103044;-69
2023/12/01 08:38:12;;;;;;;12.68;9.98;;;;;;;1.27;79.17;97148.16;4933780;28;102753;-68
2023/12/01 08:40:49;;;;;;;13.50;10.80;;;;;;;1.31;79.89;97139.91;4925933;27;102762;-68
2023/12/01 08:43:24;;;;;;;12.82;10.15;;;;;;;1.39;79.49;97140.94;4933287;28;104424;-68
2023/12/01 08:45:56;;;;;;;12.45;9.43;;;;;;;1.47;79.77;97147.06;4992912;27;103428;-68
2023/12/01 08:48:52;;;;;;;17.00;14.10;;;;;;;1.46;78.78;97142.00;4950406;28;102702;-67
2023/12/01 08:51:54;;;;;;;12.10;9.43;;;;;;;1.52;79.81;97143.19;4977715;22;103883;-71
2023/12/01 08:54:22;;;;;;;11.35;8.93;;;;;;;1.61;79.44;97135.28;4974447;28;103961;-71
2023/12/01 08:56:50;;;;;;;16.27;11.50;;;;;;;1.65;79.31;97131.41;4996897;28;103271;-71
2023/12/01 08:59:18;;;;;;;14.32;11.98;;;;;;;1.65;78.78;97135.78;4987031;28;102735;-71
2023/12/01 09:01:50;;;;;;;15.20;12.10;;;;;;;1.54;78.58;97156.91;4976211;28;102742;-72
2023/12/01 09:04:22;;;;;;;13.45;10.43;;;;;;;1.59;79.46;97150.25;5009620;28;103240;-71
2023/12/01 09:06:50;;;;;;;13.05;10.40;;;;;;;1.64;78.95;97144.59;4989279;28;103237;-72
2023/12/01 09:09:18;;;;;;;13.20;10.32;;;;;;;1.66;79.17;97140.03;4984688;28;102654;-71
2023/12/01 09:11:46;;;;;;;12.85;10.13;;;;;;;1.72;78.81;97142.06;4981709;28;103769;-71
2023/12/01 09:14:14;;;;;;;13.13;10.10;;;;;;;1.67;78.44;97133.84;5008121;28;103911;-71
2023/12/01 09:16:42;;;;;;;12.18;9.20;;;;;;;1.76;78.66;97132.16;5002312;28;103199;-71
2023/12/01 09:19:11;;;;;;;13.20;9.85;;;;;;;1.78;78.43;97133.63;5009150;28;102591;-71
2023/12/01 09:21:39;;;;;;;14.35;11.40;;;;;;;1.75;78.44;97140.94;5002491;28;102953;-71
2023/12/01 09:24:08;;;;;;;12.40;10.32;;;;;;;1.79;78.79;97148.31;4977269;28;103891;-71
2023/12/01 09:26:36;;;;;;;15.00;12.07;;;;;;;1.81;78.75;97156.81;5006645;28;103205;-72
2023/12/01 09:29:03;;;;;;;20.05;16.40;;;;;;;1.86;77.95;97152.94;5003798;28;102542;-72
2023/12/01 09:31:31;;;;;;;15.57;13.27;;;;;;;1.78;77.94;97146.69;4999265;28;102894;-71
2023/12/01 09:33:59;;;;;;;15.00;12.60;;;;;;;1.71;78.31;97140.41;5002177;28;103207;-72
2023/12/01 09:36:30;;;;;;;14.90;11.73;;;;;;;1.75;78.72;97148.78;5011058;28;103193;-71
2023/12/01 09:38:59;;;;;;;16.58;13.32;;;;;;;1.80;78.17;97165.63;5003119;28;102571;-72
2023/12/01 09:41:30;;;;;;;13.20;10.85;;;;;;;1.81;78.31;97172.47;5001050;28;103795;-71
2023/12/01 09:43:58;;;;;;;14.35;10.80;;;;;;;1.79;78.26;97163.97;5005144;28;103281;-71
2023/12/01 09:46:36;;;;;;;11.50;9.38;;;;;;;1.86;78.31;97165.97;4979692;28;102630;-71
2023/12/01 09:49:05;;;;;;;13.07;10.93;;;;;;;1.88;77.78;97167.47;5009423;28;102562;-72
2023/12/01 09:51:36;;;;;;;12.25;10.77;;;;;;;1.84;78.45;97160.09;4982964;28;103062;-72
2023/12/01 09:54:05;;;;;;;16.45;12.90;;;;;;;1.77;78.32;97163.31;5006869;28;104073;-72
2023/12/01 09:56:33;;;;;;;21.92;16.08;;;;;;;1.77;78.23;97165.91;4988375;28;104297;-71
2023/12/01 09:59:02;;;;;;;29.92;21.33;;;;;;;1.52;78.35;97161.44;5002184;28;102779;-71
2023/12/01 10:01:30;;;;;;;18.83;14.65;;;;;;;1.56;79.33;97161.00;5003030;28;103546;-72
2023/12/01 10:04:00;;;;;;;18.15;14.02;;;;;;;1.57;79.37;97156.59;5002355;28;104062;-72
2023/12/01 10:06:28;;;;;;;20.13;12.90;;;;;;;1.69;80.00;97158.03;4980698;28;103284;-71
2023/12/01 10:08:58;;;;;;;17.88;13.05;;;;;;;1.78;79.66;97146.69;4989404;28;102713;-72
2023/12/01 10:11:28;;;;;;;18.50;13.15;;;;;;;1.64;79.17;97139.38;4980354;28;102806;-72
2023/12/01 10:13:56;;;;;;;17.92;13.75;;;;;;;1.53;79.42;97131.78;5007611;28;103874;-72
2023/12/01 10:16:25;;;;;;;21.85;16.77;;;;;;;1.40;79.73;97132.97;4999483;28;103316;-72
2023/12/01 10:19:00;;;;;;;20.70;17.02;;;;;;;1.47;80.08;97131.41;5002654;28;102945;-72
2023/12/01 10:21:45;;;;;;;21.92;18.05;;;;;;;1.49;79.09;97134.69;5005176;28;103017;-71
2023/12/01 10:24:16;;;;;;;23.35;18.70;;;;;;;1.40;80.05;97132.97;4999020;28;103093;-71
2023/12/01 10:26:46;;;;;;;20.70;15.80;;;;;;;1.35;80.23;97136.97;4983827;28;104220;-75
2023/12/01 10:29:28;;;;;;;30.73;21.30;;;;;;;1.29;79.65;97141.00;4999964;28;102602;-71
2023/12/01 10:31:58;;;;;;;23.57;17.27;;;;;;;1.50;80.64;97130.28;5000449;28;103191;-72
2023/12/01 10:34:27;;;;;;;26.38;19.80;;;;;;;1.56;80.03;97131.47;4984823;28;104182;-72
2023/12/01 10:36:57;;;;;;;18.08;14.45;;;;;;;1.56;79.78;97121.88;4988137;28;104293;-72
2023/12/01 10:39:29;;;;;;;22.15;17.70;;;;;;;1.48;79.91;97111.34;4981898;28;102791;-72
2023/12/01 10:41:58;;;;;;;24.92;19.75;;;;;;;1.49;79.91;97110.38;5003287;28;104369;-72
2023/12/01 10:44:32;;;;;;;19.70;14.65;;;;;;;1.25;80.82;97103.16;5006359;28;103215;-72
2023/12/01 10:47:01;;;;;;;20.02;16.77;;;;;;;1.36;80.50;97117.75;4998594;28;103189;-72
2023/12/01 10:49:30;;;;;;;26.95;20.52;;;;;;;1.15;80.79;97122.31;5002249;28;102784;-72
2023/12/01 10:52:00;;;;;;;18.85;14.63;;;;;;;1.39;80.95;97126.13;4999054;28;102720;-71
2023/12/01 10:54:34;;;;;;;25.00;19.73;;;;;;;1.39;80.83;97120.91;5001693;28;104532;-72
2023/12/01 10:57:11;;;;;;;19.77;15.75;;;;;;;1.29;81.46;97114.94;4985566;28;103262;-72
2023/12/01 10:59:44;;;;;;;22.25;17.27;;;;;;;1.37;80.86;97107.16;5002237;28;102726;-72
2023/12/01 11:02:15;;;;;;;24.52;18.20;;;;;;;1.43;80.45;97111.81;4982000;28;102668;-72
2023/12/01 11:04:45;;;;;;;22.77;19.00;;;;;;;1.46;80.50;97110.69;4991474;28;103846;-72
2023/12/01 11:07:34;;;;;;;19.52;15.15;;;;;;;1.42;80.21;97104.94;5005847;28;103312;-72
2023/12/01 11:10:16;;;;;;;23.77;19.10;;;;;;;1.35;80.89;97103.91;4996163;28;102689;-72
2023/12/01 11:12:55;;;;;;;19.92;15.85;;;;;;;1.45;80.77;97125.50;4980979;28;102771;-71
2023/12/01 11:15:30;;;;;;;20.50;14.52;;;;;;;1.50;80.68;97119.84;5010161;28;103624;-72
2023/12/01 11:17:58;;;;;;;20.42;15.63;;;;;;;1.61;80.70;97117.03;5003230;28;103427;-71
2023/12/01 11:20:36;;;;;;;18.50;14.73;;;;;;;1.69;80.40;97094.56;4985538;28;102652;-71
2023/12/01 11:23:25;;;;;;;27.83;20.58;;;;;;;1.36;79.63;97095.09;5002551;28;103898;-71
2023/12/01 11:25:56;;;;;;;23.65;18.00;;;;;;;1.44;80.33;97092.56;5009405;28;104032;-71
2023/12/01 11:28:35;;;;;;;24.88;18.65;;;;;;;1.42;80.52;97078.84;4977624;28;103395;-71
2023/12/01 11:31:08;;;;;;;29.40;23.38;;;;;;;1.33;80.43;97090.19;4977270;28;102629;-71
2023/12/01 11:33:40;;;;;;;25.08;19.50;;;;;;;1.22;80.94;97093.84;4978397;28;102661;-71
2023/12/01 11:36:28;;;;;;;30.73;23.25;;;;;;;1.27;81.00;97095.97;5003155;28;103752;-71
2023/12/01 11:39:16;;;;;;;30.15;21.33;;;;;;;1.28;81.11;97088.00;4999254;28;103391;-72
2023/12/01 11:41:48;;;;;;;32.60;24.65;;;;;;;1.34;81.15;97099.66;4994043;28;102686;-72
2023/12/01 11:44:17;;;;;;;28.02;21.65;;;;;;;1.15;82.07;97093.63;4977011;28;103911;-73
2023/12/01 11:46:55;;;;;;;27.88;18.38;;;;;;;1.35;81.56;97101.31;4980746;28;102903;-70
2023/12/01 11:49:26;;;;;;;27.70;21.05;;;;;;;1.28;81.26;97095.03;5004145;28;103214;-70
2023/12/01 11:51:54;;;;;;;33.65;25.85;;;;;;;1.09;81.52;97082.97;5003251;28;102610;-70
2023/12/01 11:54:24;;;;;;;33.45;23.88;;;;;;;1.19;81.59;97088.09;4978761;28;102746;-73
2023/12/01 11:56:55;;;;;;;32.90;24.98;;;;;;;1.19;82.08;97093.31;4972193;28;104176;-74
2023/12/01 11:59:24;;;;;;;38.38;27.55;;;;;;;1.18;81.76;97095.09;4998823;28;103278;-71
2023/12/01 12:01:53;;;;;;;33.75;24.63;;;;;;;1.07;82.41;97100.53;4994339;28;103277;-71
2023/12/01 12:04:22;;;;;;;34.97;24.40;;;;;;;1.14;82.21;97112.84;4968867;28;102830;-73
2023/12/01 12:06:51;;;;;;;35.35;25.30;;;;;;;1.08;81.43;97123.84;4983082;28;103365;-73
2023/12/01 12:09:19;;;;;;;36.03;26.50;;;;;;;1.01;82.35;97114.97;5000091;28;103192;-74
2023/12/01 12:11:52;;;;;;;38.50;27.65;;;;;;;0.91;82.29;97112.41;5003568;28;103152;-73
2023/12/01 12:14:24;;;;;;;35.78;25.25;;;;;;;0.85;82.88;97106.97;5000169;28;102582;-73
2023/12/01 12:16:52;;;;;;;26.48;19.70;;;;;;;1.01;82.99;97111.53;4977252;28;103146;-73
2023/12/01 12:19:21;;;;;;;22.75;16.40;;;;;;;1.20;82.61;97123.66;4998542;28;103209;-71
2023/12/01 12:21:50;;;;;;;35.33;25.55;;;;;;;1.12;81.90;97130.41;4984683;28;102730;-74
2023/12/01 12:24:18;;;;;;;38.22;25.27;;;;;;;1.24;81.77;97125.78;5002163;28;102878;-74
2023/12/01 12:26:57;;;;;;;28.08;20.20;;;;;;;1.31;81.66;97119.03;5005732;28;102987;-71
2023/12/01 12:29:27;;;;;;;35.75;26.85;;;;;;;1.31;81.92;97123.41;4999805;28;103283;-71
2023/12/01 12:31:57;;;;;;;25.95;19.55;;;;;;;1.32;81.84;97114.63;4980933;28;102851;-77
2023/12/01 12:34:25;;;;;;;24.13;17.23;;;;;;;1.45;82.23;97120.28;5008504;28;103510;-75
2023/12/01 12:36:56;;;;;;;31.73;21.20;;;;;;;1.51;81.32;97139.75;5001795;28;103289;-76
2023/12/01 12:39:27;;;;;;;30.10;21.67;;;;;;;1.58;81.69;97151.22;4979863;28;103192;-76
2023/12/01 12:41:57;;;;;;;30.75;22.10;;;;;;;1.60;81.11;97151.09;4977902;28;102767;-75
2023/12/01 12:44:29;;;;;;;38.78;25.63;;;;;;;1.60;80.95;97143.28;5003039;28;102634;-73
2023/12/01 12:47:00;;;;;;;30.40;22.98;;;;;;;1.31;81.68;97139.91;4998442;28;103219;-75
2023/12/01 12:49:31;;;;;;;40.00;27.60;;;;;;;1.23;81.75;97131.16;4996683;28;103460;-75
2023/12/01 12:51:59;;;;;;;34.28;24.52;;;;;;;1.36;81.74;97131.63;4956826;28;102699;-76
2023/12/01 12:54:28;;;;;;;36.35;25.40;;;;;;;1.39;81.28;97123.50;4949346;28;102710;-74
2023/12/01 12:56:59;;;;;;;34.05;23.02;;;;;;;1.24;80.94;97117.16;4969562;28;102952;-74
2023/12/01 12:59:28;;;;;;;41.22;28.45;;;;;;;1.06;81.75;97119.75;4941906;28;103461;-75
2023/12/01 13:01:57;;;;;;;33.13;24.55;;;;;;;1.01;81.75;97107.16;4965216;28;102591;-74
2023/12/01 13:04:26;;;;;;;40.70;27.02;;;;;;;1.01;81.91;97098.50;4965619;28;102694;-73
2023/12/01 13:06:56;;;;;;;41.33;27.50;;;;;;;1.15;82.24;97098.00;4969339;28;103268;-76
2023/12/01 13:09:25;;;;;;;38.83;26.52;;;;;;;1.32;82.33;97097.19;4956254;28;103848;-75
2023/12/01 13:11:53;;;;;;;32.70;21.20;;;;;;;1.28;81.56;97108.06;4978132;28;102670;-75
2023/12/01 13:14:23;;;;;;;36.60;27.55;;;;;;;1.11;81.25;97096.66;4945577;28;102732;-75
2023/12/01 13:16:54;;;;;;;32.40;23.52;;;;;;;1.13;82.29;97095.53;4965361;28;103194;-72
2023/12/01 13:19:23;;;;;;;32.00;23.92;;;;;;;1.05;82.04;97112.88;4969196;28;103206;-77
2023/12/01 13:21:53;;;;;;;38.45;26.55;;;;;;;0.96;81.93;97104.97;4971028;28;102568;-77
2023/12/01 13:24:24;;;;;;;34.33;25.15;;;;;;;0.96;82.60;97104.19;4950188;28;104008;-76
2023/12/01 13:27:10;;;;;;;36.28;24.55;;;;;;;0.80;82.49;97100.41;4964011;28;103184;-75
2023/12/01 13:29:48;;;;;;;32.25;24.90;;;;;;;0.79;82.44;97098.78;4975498;28;103159;-74
2023/12/01 13:32:20;;;;;;;;;;;;;;;0.66;82.92;97119.16;4967158;28;103634;-74
2023/12/01 13:34:51;;;;;;;34.50;24.48;;;;;;;0.67;83.06;97126.00;4968784;28;104911;-74
2023/12/01 13:37:19;;;;;;;37.17;25.42;;;;;;;0.72;82.71;97121.19;4969049;28;103178;-76
2023/12/01 13:39:47;;;;;;;28.55;22.02;;;;;;;0.77;82.34;97126.78;4952481;28;104174;-79
2023/12/01 13:42:15;;;;;;;34.42;24.02;;;;;;;0.60;83.14;97120.56;4968384;28;103675;-77
2023/12/01 13:44:43;;;;;;;35.33;25.85;;;;;;;0.69;82.97;97118.84;4941375;28;102879;-76
2023/12/01 13:47:11;;;;;;;33.45;25.33;;;;;;;0.60;83.11;97124.91;4949244;28;103921;-72
2023/12/01 13:49:43;;;;;;;34.58;22.73;;;;;;;0.65;82.92;97133.13;4962662;28;104082;-75
2023/12/01 13:52:15;;;;;;;35.40;25.05;;;;;;;0.81;82.55;97133.34;4971325;28;102691;-75
2023/12/01 13:54:49;;;;;;;33.08;21.90;;;;;;;0.70;82.70;97125.69;4960267;28;103571;-74
2023/12/01 13:57:17;;;;;;;25.42;18.73;;;;;;;0.76;82.71;97125.13;4965470;28;104296;-75
2023/12/01 13:59:45;;;;;;;32.35;22.80;;;;;;;0.65;82.47;97127.91;4946685;28;103099;-73
2023/12/01 14:02:13;;;;;;;34.67;25.02;;;;;;;0.62;82.38;97123.81;4961977;28;103006;-73
2023/12/01 14:04:42;;;;;;;30.63;22.52;;;;;;;0.63;82.43;97132.47;4961139;28;103823;-76
2023/12/01 14:07:15;;;;;;;35.67;25.65;;;;;;;0.42;83.48;97128.28;4970501;28;103221;-76
2023/12/01 14:09:43;;;;;;;35.38;25.23;;;;;;;0.36;83.72;97128.03;4971075;28;103298;-76
2023/12/01 14:12:23;;;;;;;33.95;22.83;;;;;;;0.40;83.95;97129.41;4963785;28;102594;-77
2023/12/01 14:14:53;;;;;;;33.78;25.35;;;;;;;0.44;83.27;97123.75;4945012;28;102697;-74
2023/12/01 14:17:21;;;;;;;36.95;26.63;;;;;;;0.30;83.83;97134.63;4947140;28;103324;-77
2023/12/01 14:19:51;;;;;;;39.05;27.83;;;;;;;0.13;84.23;97134.41;4943839;28;103188;-76
2023/12/01 14:22:22;;;;;;;32.80;23.45;;;;;;;0.29;84.04;97133.81;4945351;28;102731;-75
2023/12/01 14:25:07;;;;;;;41.03;27.95;;;;;;;0.31;83.92;97141.47;4943645;28;102882;-76
2023/12/01 14:27:45;;;;;;;36.47;26.00;;;;;;;0.39;83.62;97131.16;4945650;28;102998;-77
2023/12/01 14:30:14;;;;;;;36.97;26.02;;;;;;;0.28;83.89;97126.16;4970462;28;102950;-74
2023/12/01 14:32:44;;;;;;;31.00;22.50;;;;;;;0.39;83.78;97133.75;4974939;28;102758;-77
2023/12/01 14:35:13;;;;;;;28.38;19.52;;;;;;;0.40;84.05;97135.41;4943508;28;103005;-74
2023/12/01 14:37:41;;;;;;;37.13;23.77;;;;;;;0.40;83.96;97130.22;4943439;28;103429;-75
2023/12/01 14:40:11;;;;;;;31.92;21.90;;;;;;;0.57;83.72;97140.84;4968958;28;103175;-75
2023/12/01 14:42:39;;;;;;;34.47;24.20;;;;;;;0.45;83.60;97146.22;4959159;28;102615;-75
2023/12/01 14:45:09;;;;;;;37.15;25.08;;;;;;;0.47;83.34;97141.72;4966689;28;103585;-77
2023/12/01 14:47:37;;;;;;;35.35;24.55;;;;;;;0.45;83.44;97138.41;4965038;28;103318;-76
2023/12/01 14:50:06;;;;;;;31.50;22.83;;;;;;;0.34;84.06;97141.19;4945566;28;103228;-78
2023/12/01 14:52:35;;;;;;;37.28;25.17;;;;;;;0.33;83.89;97145.59;4961290;28;102766;-76
2023/12/01 14:55:04;;;;;;;35.13;25.17;;;;;;;0.42;83.63;97149.13;4948529;28;102792;-77
2023/12/01 14:57:32;;;;;;;39.95;25.92;;;;;;;0.48;83.35;97140.72;4943019;28;103298;-75
2023/12/01 15:00:00;;;;;;;32.45;22.02;;;;;;;0.54;83.74;97146.31;4958841;28;103218;-75
2023/12/01 15:02:28;;;;;;;34.92;23.38;;;;;;;0.62;83.33;97154.28;4957179;28;102870;-76
2023/12/01 15:04:57;;;;;;;36.47;25.42;;;;;;;0.45;83.37;97161.84;4961291;28;102711;-73
2023/12/01 15:07:26;;;;;;;38.08;25.65;;;;;;;0.40;83.37;97156.25;4959359;28;103286;-75
2023/12/01 15:09:56;;;;;;;44.95;29.08;;;;;;;0.39;83.80;97153.78;4956451;28;103376;-73
2023/12/01 15:12:23;;;;;;;41.78;26.95;;;;;;;0.27;83.64;97155.75;4941602;28;103844;-74
2023/12/01 15:14:51;;;;;;;45.78;28.20;;;;;;;0.15;84.14;97148.09;4945850;28;104033;-74
2023/12/01 15:17:22;;;;;;;38.05;24.27;;;;;;;0.22;84.40;97157.94;4953916;28;103218;-74
2023/12/01 15:19:50;;;;;;;39.13;24.55;;;;;;;0.27;84.29;97150.53;4938955;28;103212;-73
2023/12/01 15:22:18;;;;;;;37.17;26.10;;;;;;;0.32;84.04;97154.34;4940055;28;103897;-74
2023/12/01 15:24:47;;;;;;;27.70;18.75;;;;;;;0.40;83.88;97160.66;4961316;28;102718;-74
2023/12/01 15:27:17;;;;;;;42.50;26.67;;;;;;;0.38;83.70;97163.41;4960328;28;104051;-74
2023/12/01 15:29:45;;;;;;;40.50;27.23;;;;;;;0.41;83.66;97160.50;4962641;28;103293;-78
2023/12/01 15:32:13;;;;;;;40.85;26.65;;;;;;;0.40;83.65;97169.28;4963336;28;102594;-77
2023/12/01 15:34:41;;;;;;;34.60;24.45;;;;;;;0.43;83.84;97165.56;4943306;28;103680;-76
2023/12/01 15:37:09;;;;;;;43.40;29.00;;;;;;;0.45;83.38;97155.84;4964481;28;103357;-78
2023/12/01 15:39:38;;;;;;;44.13;28.88;;;;;;;0.30;83.97;97151.09;4972350;28;104356;-77
2023/12/01 15:42:07;;;;;;;42.10;28.30;;;;;;;0.30;83.46;97152.84;4960111;28;102620;-78
2023/12/01 15:44:37;;;;;;;37.25;24.08;;;;;;;0.46;84.00;97149.69;4955547;28;102803;-80
2023/12/01 15:47:06;;;;;;;28.88;19.20;;;;;;;0.55;83.54;97147.97;4962970;28;103741;-77
2023/12/01 15:49:35;;;;;;;41.90;28.30;;;;;;;0.22;84.12;97139.72;4945143;28;103278;-78
2023/12/01 15:52:04;;;;;;;41.88;28.08;;;;;;;0.25;84.02;97149.84;4979605;28;102568;-80
2023/12/01 15:54:31;;;;;;;37.70;24.80;;;;;;;0.21;84.44;97156.31;4941143;28;102662;-77
2023/12/01 15:57:00;;;;;;;41.67;28.58;;;;;;;0.20;84.26;97154.66;4951596;28;103175;-79
2023/12/01 15:59:28;;;;;;;45.85;29.73;;;;;;;0.09;84.25;97158.25;4942085;28;103463;-77
2023/12/01 16:01:57;;;;;;;41.60;27.30;;;;;;;0.18;84.41;97157.41;4944594;28;103042;-76
2023/12/01 16:04:25;;;;;;;39.85;27.45;;;;;;;0.18;84.15;97161.81;4968442;28;102668;-73
2023/12/01 16:06:53;;;;;;;36.72;24.00;;;;;;;0.24;84.41;97166.47;4961015;28;103265;-74
2023/12/01 16:09:21;;;;;;;34.67;23.25;;;;;;;0.22;84.54;97147.53;4961747;28;103291;-74
2023/12/01 16:11:49;;;;;;;49.67;30.50;;;;;;;0.08;84.39;97147.03;4941250;28;102631;-75
2023/12/01 16:14:17;;;;;;;43.83;28.88;;;;;;;0.08;84.27;97154.00;4943140;28;103668;-76
2023/12/01 16:16:45;;;;;;;48.55;29.33;;;;;;;0.11;84.72;97151.13;4942658;28;103374;-77
2023/12/01 16:19:14;;;;;;;40.63;27.92;;;;;;;0.04;85.01;97150.88;4951550;28;103292;-75
2023/12/01 16:21:44;;;;;;;51.03;30.98;;;;;;;-0.01;85.00;97155.69;4959142;28;102663;-77
2023/12/01 16:24:12;;;;;;;46.25;30.83;;;;;;;0.00;85.20;97149.50;4941599;28;102798;-74
2023/12/01 16:26:47;;;;;;;45.63;29.17;;;;;;;0.07;84.88;97155.78;4940249;28;103225;-74
2023/12/01 16:29:15;;;;;;;50.08;30.83;;;;;;;-0.07;85.05;97149.22;4948992;28;103259;-75
2023/12/01 16:31:43;;;;;;;36.95;22.17;;;;;;;0.21;85.19;97156.31;4958606;28;102692;-75
2023/12/01 16:34:11;;;;;;;47.05;29.45;;;;;;;0.26;84.34;97154.09;4944320;28;102772;-76
2023/12/01 16:36:40;;;;;;;51.22;31.55;;;;;;;0.14;84.39;97154.28;4942530;28;104470;-75
2023/12/01 16:39:19;;;;;;;48.15;30.65;;;;;;;0.19;84.42;97161.66;4959109;28;103223;-74
2023/12/01 16:41:50;;;;;;;41.00;26.65;;;;;;;0.12;84.62;97161.41;4962075;28;102665;-75
2023/12/01 16:44:26;;;;;;;51.40;29.52;;;;;;;0.15;84.42;97158.50;4964383;28;102721;-74
2023/12/01 16:46:54;;;;;;;33.92;20.50;;;;;;;0.08;84.72;97157.44;4952175;28;103701;-75
2023/12/01 16:49:24;;;;;;;47.75;28.80;;;;;;;0.16;84.74;97165.38;4941172;28;103375;-75
2023/12/01 16:51:54;;;;;;;49.75;30.23;;;;;;;0.13;84.11;97160.44;4961232;28;103655;-75
2023/12/01 16:54:22;;;;;;;42.03;27.83;;;;;;;0.13;84.72;97154.41;4941417;28;102633;-76
2023/12/01 16:56:50;;;;;;;44.95;29.75;;;;;;;0.20;84.37;97155.50;4942072;28;103247;-75
2023/12/01 16:59:18;;;;;;;47.25;27.88;;;;;;;0.11;84.63;97151.94;4943625;28;104465;-75
2023/12/01 17:01:46;;;;;;;50.53;30.20;;;;;;;0.10;84.11;97142.47;4937780;28;102623;-75
2023/12/01 17:04:15;;;;;;;43.28;26.05;;;;;;;0.08;85.00;97151.41;4964168;28;102576;-75
2023/12/01 17:06:43;;;;;;;49.30;30.92;;;;;;;0.05;84.54;97157.69;4972023;28;103308;-74
2023/12/01 17:09:13;;;;;;;51.20;31.13;;;;;;;0.15;84.48;97158.50;4941909;28;103826;-74